Time;durP1;ratioP1;P1;durP2;ratioP2;P2;SDS_P1;SDS_P2;PMS_P1;PMS_P2;Temp;Humidity;BMP_temperature;BMP_pressure;BME280_temperature;BME280_humidity;BME280_pressure;Samples;Min_cycle;Max_cycle;Signal;HPM_P1;HPM_P2
2024/03/31 00:01:40;;;;;;;;;;;10.90;93.80;;;;;;5104806;27;20004;-75
2024/03/31 00:04:06;;;;;;;;;;;10.80;93.60;;;;;;5104291;28;19988;-75
2024/03/31 00:06:31;;;;;;;;;;;10.80;94.00;;;;;;5098839;27;20020;-73
2024/03/31 00:08:57;;;;;;;;;;;10.90;93.40;;;;;;5108016;27;20050;-76
2024/03/31 00:11:22;;;;;;;;;;;10.90;93.50;;;;;;5105109;28;19988;-74
2024/03/31 00:13:48;;;;;;;;;;;10.90;93.10;;;;;;5104400;27;19996;-72
2024/03/31 00:16:13;;;;;;;;;;;10.80;94.10;;;;;;5107761;27;20046;-75
2024/03/31 00:18:39;;;;;;;;;;;10.80;94.30;;;;;;5104461;27;20015;-73
2024/03/31 00:21:04;;;;;;;;;;;10.90;93.60;;;;;;5105907;27;20018;-74
2024/03/31 00:23:30;;;;;;;;;;;11.00;93.30;;;;;;5101173;27;20091;-74
2024/03/31 00:25:58;;;;;;;;;;;11.00;93.00;;;;;;5107293;27;19993;-74
2024/03/31 00:28:24;;;;;;;;;;;11.00;93.20;;;;;;5104341;27;19989;-75
2024/03/31 00:30:56;;;;;;;;;;;10.90;93.20;;;;;;5109014;27;20003;-76
2024/03/31 00:33:25;;;;;;;;;;;11.00;93.10;;;;;;5104195;27;20137;-76
2024/03/31 00:35:51;;;;;;;;;;;11.00;93.00;;;;;;5105140;27;20108;-77
2024/03/31 00:38:17;;;;;;;;;;;11.00;93.00;;;;;;5104620;27;19993;-75
2024/03/31 00:40:42;;;;;;;;;;;10.90;93.20;;;;;;5104369;27;20011;-73
2024/03/31 00:43:08;;;;;;;;;;;11.00;93.00;;;;;;5103851;28;19999;-77
2024/03/31 00:45:33;;;;;;;;;;;11.00;92.60;;;;;;5103594;27;19989;-74
2024/03/31 00:47:59;;;;;;;;;;;10.80;93.70;;;;;;5102616;28;19988;-73
2024/03/31 00:50:25;;;;;;;;;;;10.90;93.40;;;;;;5088455;28;20045;-75
2024/03/31 00:52:50;;;;;;;;;;;10.80;93.50;;;;;;5099882;27;19996;-74
2024/03/31 00:55:16;;;;;;;;;;;10.70;93.90;;;;;;5101398;27;19992;-74
2024/03/31 00:57:41;;;;;;;;;;;10.80;93.50;;;;;;5101917;28;19988;-73
2024/03/31 01:00:07;;;;;;;;;;;11.00;93.00;;;;;;5103839;27;20013;-74
2024/03/31 01:02:32;;;;;;;;;;;10.80;93.80;;;;;;5104341;27;20109;-74
2024/03/31 01:04:58;;;;;;;;;;;10.80;93.60;;;;;;5107633;27;19995;-76
2024/03/31 01:07:24;;;;;;;;;;;10.70;93.90;;;;;;5104203;27;20056;-73
2024/03/31 01:09:49;;;;;;;;;;;10.80;93.90;;;;;;5099995;28;19993;-73
2024/03/31 01:12:15;;;;;;;;;;;10.80;93.40;;;;;;5102428;27;21695;-73
2024/03/31 01:14:40;;;;;;;;;;;11.00;93.10;;;;;;5105044;27;20192;-74
2024/03/31 01:17:06;;;;;;;;;;;10.70;93.50;;;;;;5104586;27;20075;-73
2024/03/31 01:19:32;;;;;;;;;;;10.80;93.60;;;;;;5106957;27;20008;-75
2024/03/31 01:21:57;;;;;;;;;;;10.80;93.40;;;;;;5101927;28;19993;-74
2024/03/31 01:24:23;;;;;;;;;;;10.70;93.60;;;;;;5102690;27;20004;-73
2024/03/31 01:26:48;;;;;;;;;;;10.80;93.40;;;;;;5102092;27;20045;-75
2024/03/31 01:29:14;;;;;;;;;;;10.70;93.40;;;;;;5108219;27;19999;-72
2024/03/31 01:31:40;;;;;;;;;;;10.70;93.60;;;;;;5103227;27;19993;-74
2024/03/31 01:34:05;;;;;;;;;;;10.70;93.60;;;;;;5104519;27;20066;-72
2024/03/31 01:36:31;;;;;;;;;;;10.80;93.60;;;;;;5101198;27;19989;-73
2024/03/31 01:38:57;;;;;;;;;;;10.70;93.70;;;;;;5103059;28;19989;-73
2024/03/31 01:41:22;;;;;;;;;;;10.70;93.60;;;;;;5088509;28;20008;-74
2024/03/31 01:43:48;;;;;;;;;;;10.60;93.90;;;;;;5102658;27;19997;-76
2024/03/31 01:46:13;;;;;;;;;;;10.50;94.50;;;;;;5100610;27;20567;-75
2024/03/31 01:48:39;;;;;;;;;;;10.70;93.70;;;;;;5101936;28;20448;-74
2024/03/31 01:51:04;;;;;;;;;;;10.80;93.60;;;;;;5105479;27;19989;-73
2024/03/31 01:53:30;;;;;;;;;;;10.60;94.10;;;;;;5098849;28;19992;-74
2024/03/31 01:55:55;;;;;;;;;;;10.50;94.40;;;;;;5102046;28;20332;-76
2024/03/31 01:58:21;;;;;;;;;;;10.50;94.50;;;;;;5099832;27;20091;-73
2024/03/31 02:00:46;;;;;;;;;;;10.50;94.40;;;;;;5104464;27;20069;-74
2024/03/31 02:03:12;;;;;;;;;;;10.40;94.80;;;;;;5102370;27;20584;-73
2024/03/31 02:05:38;;;;;;;;;;;10.40;95.00;;;;;;5100842;28;19989;-74
2024/03/31 02:08:03;;;;;;;;;;;10.40;95.00;;;;;;5104736;27;20035;-74
2024/03/31 02:10:29;;;;;;;;;;;10.40;94.90;;;;;;5099910;27;20075;-73
2024/03/31 02:12:54;;;;;;;;;;;10.40;94.90;;;;;;5104953;27;19993;-73
2024/03/31 02:15:20;;;;;;;;;;;10.30;95.10;;;;;;5098841;28;20003;-76
2024/03/31 02:17:45;;;;;;;;;;;10.30;95.30;;;;;;5103807;28;20447;-74
2024/03/31 02:20:11;;;;;;;;;;;10.30;95.20;;;;;;5099999;28;20093;-74
2024/03/31 02:22:37;;;;;;;;;;;10.40;95.00;;;;;;5101456;28;20053;-73
2024/03/31 02:25:03;;;;;;;;;;;10.40;94.90;;;;;;5103578;28;20778;-74
2024/03/31 02:27:29;;;;;;;;;;;10.50;95.00;;;;;;5101115;28;20446;-74
2024/03/31 02:29:54;;;;;;;;;;;10.50;94.80;;;;;;5107953;28;20063;-75
2024/03/31 02:32:20;;;;;;;;;;;10.40;95.20;;;;;;5081660;28;20053;-74
2024/03/31 02:34:45;;;;;;;;;;;10.50;94.70;;;;;;5099103;28;20039;-75
2024/03/31 02:37:11;;;;;;;;;;;10.50;94.80;;;;;;5105189;28;20027;-74
2024/03/31 02:39:37;;;;;;;;;;;10.50;94.70;;;;;;5101492;28;20055;-76
2024/03/31 02:42:02;;;;;;;;;;;10.50;94.90;;;;;;5099044;28;20024;-75
2024/03/31 02:44:28;;;;;;;;;;;10.40;95.40;;;;;;5101328;28;19992;-75
2024/03/31 02:46:53;;;;;;;;;;;10.40;95.50;;;;;;5099069;28;19989;-75
2024/03/31 02:49:19;;;;;;;;;;;10.40;95.30;;;;;;5102436;28;19993;-73
2024/03/31 02:51:44;;;;;;;;;;;10.40;95.50;;;;;;5098541;28;19996;-74
2024/03/31 02:54:10;;;;;;;;;;;10.40;95.60;;;;;;5101839;28;20818;-75
2024/03/31 02:56:35;;;;;;;;;;;10.40;95.50;;;;;;5101569;28;19989;-73
2024/03/31 02:59:01;;;;;;;;;;;10.40;95.60;;;;;;5097217;28;20105;-75
2024/03/31 03:01:26;;;;;;;;;;;10.40;95.50;;;;;;5102009;28;20001;-74
2024/03/31 03:03:52;;;;;;;;;;;10.40;95.40;;;;;;5103753;28;20507;-73
2024/03/31 03:06:18;;;;;;;;;;;10.40;95.40;;;;;;5106403;27;20021;-74
2024/03/31 03:08:43;;;;;;;;;;;10.50;95.00;;;;;;5105517;27;20043;-75
2024/03/31 03:11:09;;;;;;;;;;;10.50;95.00;;;;;;5105859;27;20080;-74
2024/03/31 03:13:34;;;;;;;;;;;10.40;95.40;;;;;;5105466;27;20037;-74
2024/03/31 03:16:03;;;;;;;;;;;10.40;95.10;;;;;;5104230;27;20032;-74
2024/03/31 03:18:29;;;;;;;;;;;10.40;95.30;;;;;;5104374;27;19989;-75
2024/03/31 03:20:57;;;;;;;;;;;10.40;95.10;;;;;;5106225;27;20004;-74
2024/03/31 03:23:23;;;;;;;;;;;10.50;94.80;;;;;;5101756;27;19996;-74
2024/03/31 03:25:58;;;;;;;;;;;10.50;95.00;;;;;;5104004;28;20071;-73
2024/03/31 03:28:24;;;;;;;;;;;10.40;95.20;;;;;;5105420;28;19996;-74
2024/03/31 03:30:49;;;;;;;;;;;10.50;94.90;;;;;;5107044;27;20460;-73
2024/03/31 03:33:15;;;;;;;;;;;10.50;94.60;;;;;;5108726;27;20099;-74
2024/03/31 03:35:40;;;;;;;;;;;10.40;95.00;;;;;;5110047;27;20610;-74
2024/03/31 03:38:06;;;;;;;;;;;10.40;94.90;;;;;;5105094;27;20092;-74
2024/03/31 03:40:32;;;;;;;;;;;10.40;95.20;;;;;;5104954;28;20005;-75
2024/03/31 03:42:57;;;;;;;;;;;10.40;94.90;;;;;;5104582;28;19993;-74
2024/03/31 03:45:23;;;;;;;;;;;10.40;95.20;;;;;;5105765;27;19999;-75
2024/03/31 03:47:48;;;;;;;;;;;10.40;95.20;;;;;;5102956;28;20066;-76
2024/03/31 03:50:14;;;;;;;;;;;10.30;95.60;;;;;;5104908;28;20034;-73
2024/03/31 03:52:40;;;;;;;;;;;10.30;95.90;;;;;;5104444;28;19992;-75
2024/03/31 03:55:05;;;;;;;;;;;10.30;96.10;;;;;;5103898;27;19989;-74
2024/03/31 03:57:31;;;;;;;;;;;10.20;96.30;;;;;;5104620;28;19993;-74
2024/03/31 03:59:57;;;;;;;;;;;10.20;96.20;;;;;;5104594;27;20062;-74
2024/03/31 04:02:22;;;;;;;;;;;10.30;96.60;;;;;;5106039;27;20001;-72
2024/03/31 04:04:48;;;;;;;;;;;10.40;96.40;;;;;;5086747;28;19993;-73
2024/03/31 04:07:13;;;;;;;;;;;10.40;96.10;;;;;;5104070;27;20059;-75
2024/03/31 04:09:39;;;;;;;;;;;10.40;96.10;;;;;;5107483;27;19988;-74
2024/03/31 04:12:05;;;;;;;;;;;10.30;96.30;;;;;;5105070;27;20041;-74
2024/03/31 04:14:31;;;;;;;;;;;10.30;96.60;;;;;;5104129;28;20080;-74
2024/03/31 04:16:56;;;;;;;;;;;10.30;96.80;;;;;;5104101;28;20074;-73
2024/03/31 04:19:26;;;;;;;;;;;10.40;96.60;;;;;;5104098;28;19993;-75
2024/03/31 04:21:51;;;;;;;;;;;10.40;96.60;;;;;;5100331;27;20000;-73
2024/03/31 04:24:17;;;;;;;;;;;10.40;96.90;;;;;;5109598;27;19988;-73
2024/03/31 04:26:42;;;;;;;;;;;10.40;96.70;;;;;;5101141;28;19992;-73
2024/03/31 04:29:08;;;;;;;;;;;10.40;96.90;;;;;;5103993;27;19993;-74
2024/03/31 04:31:34;;;;;;;;;;;10.40;96.90;;;;;;5103884;27;20075;-74
2024/03/31 04:33:59;;;;;;;;;;;10.40;96.90;;;;;;5103959;28;19985;-74
2024/03/31 04:36:25;;;;;;;;;;;10.40;97.00;;;;;;5104703;27;20039;-74
2024/03/31 04:38:50;;;;;;;;;;;10.50;96.90;;;;;;5113728;27;20024;-74
2024/03/31 04:41:16;;;;;;;;;;;10.40;97.00;;;;;;5101138;28;20009;-75
2024/03/31 04:43:42;;;;;;;;;;;10.40;97.20;;;;;;5103280;28;19992;-74
2024/03/31 04:46:08;;;;;;;;;;;10.40;97.50;;;;;;5103794;28;19997;-73
2024/03/31 04:48:34;;;;;;;;;;;10.20;97.60;;;;;;5100850;27;20045;-75
2024/03/31 04:51:07;;;;;;;;;;;10.10;98.20;;;;;;5103099;27;19990;-73
2024/03/31 04:53:33;;;;;;;;;;;9.90;98.60;;;;;;5102154;28;19999;-73
2024/03/31 04:56:02;;;;;;;;;;;9.90;98.90;;;;;;5101720;28;19995;-75
2024/03/31 04:58:28;;;;;;;;;;;9.90;98.90;;;;;;5103920;27;20038;-73
2024/03/31 05:00:53;;;;;;;;;;;10.00;98.60;;;;;;5103326;28;20012;-74
2024/03/31 05:03:19;;;;;;;;;;;9.80;99.10;;;;;;5089997;28;20032;-74
2024/03/31 05:05:45;;;;;;;;;;;9.80;99.50;;;;;;5103104;28;20070;-73
2024/03/31 05:08:11;;;;;;;;;;;9.80;99.30;;;;;;5104147;27;20087;-76
2024/03/31 05:10:36;;;;;;;;;;;9.70;99.60;;;;;;5103339;28;20041;-73
2024/03/31 05:13:02;;;;;;;;;;;9.70;99.90;;;;;;5097704;28;20036;-74
2024/03/31 05:15:28;;;;;;;;;;;9.70;99.90;;;;;;5104270;27;20689;-73
2024/03/31 05:17:53;;;;;;;;;;;9.70;99.70;;;;;;5109523;27;19984;-73
2024/03/31 05:20:21;;;;;;;;;;;9.80;99.70;;;;;;5103028;28;20012;-74
2024/03/31 05:22:46;;;;;;;;;;;9.70;99.80;;;;;;5087332;28;20594;-73
2024/03/31 05:25:12;;;;;;;;;;;9.80;99.90;;;;;;5102901;27;19992;-73
2024/03/31 05:27:38;;;;;;;;;;;9.80;99.90;;;;;;5100186;27;19989;-74
2024/03/31 05:30:03;;;;;;;;;;;9.90;99.80;;;;;;5105399;27;20425;-75
2024/03/31 05:32:29;;;;;;;;;;;10.00;99.70;;;;;;5103869;27;20031;-74
2024/03/31 05:34:54;;;;;;;;;;;10.00;99.80;;;;;;5104007;27;20030;-73
2024/03/31 05:37:20;;;;;;;;;;;10.20;99.30;;;;;;5105057;27;20022;-74
2024/03/31 05:39:46;;;;;;;;;;;10.10;99.50;;;;;;5105380;27;20008;-73
2024/03/31 05:42:11;;;;;;;;;;;10.30;98.90;;;;;;5103050;27;20000;-74
2024/03/31 05:44:37;;;;;;;;;;;10.40;98.70;;;;;;5097760;28;19985;-75
2024/03/31 05:47:02;;;;;;;;;;;10.40;98.80;;;;;;5102454;27;20287;-75
2024/03/31 05:49:28;;;;;;;;;;;10.40;98.60;;;;;;5102048;27;19988;-74
2024/03/31 05:51:53;;;;;;;;;;;10.60;98.10;;;;;;5102366;28;19985;-74
2024/03/31 05:54:19;;;;;;;;;;;10.50;98.10;;;;;;5102388;28;19989;-73
2024/03/31 05:56:44;;;;;;;;;;;10.60;97.90;;;;;;5103741;27;19988;-73
2024/03/31 05:59:10;;;;;;;;;;;10.40;98.30;;;;;;5102070;27;20729;-72
2024/03/31 06:01:35;;;;;;;;;;;10.30;98.60;;;;;;5102457;28;20058;-73
2024/03/31 06:04:01;;;;;;;;;;;10.30;98.30;;;;;;5102970;28;19989;-74
2024/03/31 06:06:26;;;;;;;;;;;10.30;98.40;;;;;;5103579;27;20363;-75
2024/03/31 06:08:52;;;;;;;;;;;10.30;98.20;;;;;;5101979;28;20443;-73
2024/03/31 06:11:18;;;;;;;;;;;10.40;98.20;;;;;;5102400;28;19993;-73
2024/03/31 06:13:44;;;;;;;;;;;10.40;98.00;;;;;;5096737;28;19996;-74
2024/03/31 06:16:10;;;;;;;;;;;10.40;98.10;;;;;;5098018;28;19992;-74
2024/03/31 06:18:36;;;;;;;;;;;10.30;98.40;;;;;;5106430;28;19988;-73
2024/03/31 06:21:05;;;;;;;;;;;10.40;98.00;;;;;;5100850;28;20425;-73
2024/03/31 06:23:30;;;;;;;;;;;10.40;97.90;;;;;;5101179;28;20022;-75
2024/03/31 06:25:56;;;;;;;;;;;10.40;98.10;;;;;;5099713;28;19992;-74
2024/03/31 06:28:22;;;;;;;;;;;10.50;98.10;;;;;;5085478;28;20046;-74
2024/03/31 06:30:47;;;;;;;;;;;10.60;97.50;;;;;;5104238;28;19989;-73
2024/03/31 06:33:13;;;;;;;;;;;10.60;97.80;;;;;;5106274;28;19999;-74
2024/03/31 06:35:38;;;;;;;;;;;10.70;97.60;;;;;;5099859;28;20075;-74
2024/03/31 06:38:04;;;;;;;;;;;10.70;97.20;;;;;;5098517;28;19989;-74
2024/03/31 06:40:29;;;;;;;;;;;10.70;96.90;;;;;;5100137;28;20035;-73
2024/03/31 06:42:55;;;;;;;;;;;10.70;96.90;;;;;;5108587;27;20032;-73
2024/03/31 06:45:21;;;;;;;;;;;10.70;97.30;;;;;;5098853;27;20004;-74
2024/03/31 06:47:46;;;;;;;;;;;10.70;97.30;;;;;;5104328;27;20000;-73
2024/03/31 06:50:12;;;;;;;;;;;10.90;97.00;;;;;;5103610;27;19999;-72
2024/03/31 06:52:37;;;;;;;;;;;11.10;96.50;;;;;;5106383;27;20058;-72
2024/03/31 06:55:03;;;;;;;;;;;11.50;96.00;;;;;;5109814;27;20627;-74
2024/03/31 06:57:30;;;;;;;;;;;11.70;95.50;;;;;;5104569;27;20013;-75
2024/03/31 06:59:55;;;;;;;;;;;12.00;95.00;;;;;;5107260;27;20009;-72
2024/03/31 07:02:21;;;;;;;;;;;12.10;94.50;;;;;;5112059;27;20048;-74
2024/03/31 07:04:46;;;;;;;;;;;12.20;94.30;;;;;;5102247;27;19995;-73
2024/03/31 07:07:12;;;;;;;;;;;14.20;92.70;;;;;;5108616;27;20017;-73
2024/03/31 07:09:37;;;;;;;;;;;16.50;87.90;;;;;;5108886;27;19996;-73
2024/03/31 07:12:03;;;;;;;;;;;16.00;84.60;;;;;;5105907;27;20859;-73
2024/03/31 07:14:29;;;;;;;;;;;14.40;87.90;;;;;;5107590;27;20061;-73
2024/03/31 07:16:54;;;;;;;;;;;14.10;89.70;;;;;;5109042;27;19988;-73
2024/03/31 07:19:20;;;;;;;;;;;15.20;88.20;;;;;;5106495;27;19997;-74
2024/03/31 07:21:46;;;;;;;;;;;15.40;88.20;;;;;;5102998;27;20042;-75
2024/03/31 07:24:11;;;;;;;;;;;14.70;87.10;;;;;;5102227;27;20587;-73
2024/03/31 07:26:37;;;;;;;;;;;14.20;89.20;;;;;;5102739;27;20053;-74
2024/03/31 07:29:02;;;;;;;;;;;14.00;90.00;;;;;;5099527;27;19985;-73
2024/03/31 07:31:28;;;;;;;;;;;13.50;90.60;;;;;;5105394;28;19988;-73
2024/03/31 07:33:53;;;;;;;;;;;13.40;91.20;;;;;;5106305;27;19991;-74
2024/03/31 07:36:19;;;;;;;;;;;13.00;92.20;;;;;;5107876;27;19999;-73
2024/03/31 07:38:44;;;;;;;;;;;12.60;92.30;;;;;;5105605;27;19992;-74
2024/03/31 07:41:10;;;;;;;;;;;12.10;94.40;;;;;;5105109;28;20027;-76
2024/03/31 07:43:35;;;;;;;;;;;11.70;96.10;;;;;;5102668;27;20748;-74
2024/03/31 07:46:01;;;;;;;;;;;11.40;97.00;;;;;;5105030;27;20422;-73
2024/03/31 07:48:27;;;;;;;;;;;11.30;97.50;;;;;;5105072;28;20473;-75
2024/03/31 07:50:52;;;;;;;;;;;11.30;97.80;;;;;;5103213;28;19989;-75
2024/03/31 07:53:18;;;;;;;;;;;11.30;97.70;;;;;;5104523;28;20733;-73
2024/03/31 07:55:43;;;;;;;;;;;11.30;98.40;;;;;;5106804;27;19989;-74
2024/03/31 07:58:09;;;;;;;;;;;11.10;98.60;;;;;;5105577;27;19996;-74
2024/03/31 08:00:34;;;;;;;;;;;11.20;99.10;;;;;;5103888;28;21476;-73
2024/03/31 08:03:00;;;;;;;;;;;11.30;98.60;;;;;;5098614;28;19993;-73
2024/03/31 08:05:25;;;;;;;;;;;11.30;98.40;;;;;;5104296;27;20028;-73
2024/03/31 08:07:51;;;;;;;;;;;11.30;98.40;;;;;;5107525;27;20774;-73
2024/03/31 08:10:17;;;;;;;;;;;11.20;98.80;;;;;;5102728;28;20015;-73
2024/03/31 08:12:42;;;;;;;;;;;11.10;99.20;;;;;;5103072;28;19985;-73
2024/03/31 08:15:08;;;;;;;;;;;11.20;99.70;;;;;;5108058;27;20266;-73
2024/03/31 08:17:33;;;;;;;;;;;11.30;99.50;;;;;;5103508;28;20024;-73
2024/03/31 08:19:59;;;;;;;;;;;11.50;99.70;;;;;;5086309;28;21135;-75
2024/03/31 08:22:24;;;;;;;;;;;11.60;99.40;;;;;;5099606;28;20014;-74
2024/03/31 08:24:50;;;;;;;;;;;11.70;99.20;;;;;;5096606;27;20749;-74
2024/03/31 08:27:15;;;;;;;;;;;11.70;98.90;;;;;;5080399;28;20000;-73
2024/03/31 08:29:41;;;;;;;;;;;12.00;98.40;;;;;;5102943;28;19997;-74
2024/03/31 08:32:07;;;;;;;;;;;12.40;98.00;;;;;;5102029;28;19997;-74
2024/03/31 08:34:33;;;;;;;;;;;12.60;97.00;;;;;;5098656;27;20018;-75
2024/03/31 08:36:59;;;;;;;;;;;12.40;96.80;;;;;;5107822;27;20049;-73
2024/03/31 08:39:25;;;;;;;;;;;12.70;97.20;;;;;;5103462;28;20005;-73
2024/03/31 08:41:56;;;;;;;;;;;13.10;96.60;;;;;;5101459;28;20017;-73
2024/03/31 08:44:22;;;;;;;;;;;13.60;95.80;;;;;;5103284;28;19992;-74
2024/03/31 08:46:48;;;;;;;;;;;14.10;94.90;;;;;;5103858;27;20000;-74
2024/03/31 08:49:13;;;;;;;;;;;15.00;92.90;;;;;;5104406;27;19993;-73
2024/03/31 08:51:39;;;;;;;;;;;15.10;92.80;;;;;;5101293;28;19989;-73
2024/03/31 08:54:05;;;;;;;;;;;15.30;91.90;;;;;;5103125;27;20083;-73
2024/03/31 08:57:21;;;;;;;1999.90;999.90;;;14.50;90.20;;;;;;5051644;28;21075;-82
2024/03/31 08:59:48;;;;;;;1999.90;999.90;;;15.30;90.20;;;;;;5039644;28;20179;-77
2024/03/31 09:02:20;;;;;;;1999.90;999.90;;;16.20;88.40;;;;;;5037616;28;20132;-78
2024/03/31 09:04:46;;;;;;;1999.90;999.90;;;17.00;85.10;;;;;;5035514;28;20029;-79
2024/03/31 09:07:12;;;;;;;1999.90;999.90;;;17.50;83.00;;;;;;5030793;28;20476;-78
2024/03/31 09:09:41;;;;;;;1999.90;999.90;;;19.10;78.00;;;;;;5037917;28;20053;-77
2024/03/31 09:12:11;;;;;;;1999.90;999.90;;;21.40;70.90;;;;;;5033408;28;20607;-77
2024/03/31 09:14:41;;;;;;;1999.90;999.90;;;19.00;67.00;;;;;;5030409;28;20037;-76
2024/03/31 09:17:11;;;;;;;1999.90;999.90;;;18.40;69.10;;;;;;5034590;28;20040;-77
2024/03/31 09:19:38;;;;;;;1999.90;999.90;;;17.70;72.00;;;;;;5025780;28;20100;-76
2024/03/31 09:22:04;;;;;;;1999.90;999.90;;;16.60;72.50;;;;;;5038538;28;20063;-76
2024/03/31 09:24:30;;;;;;;;;;;16.20;76.20;;;;;;5037502;28;20029;-80
2024/03/31 09:26:59;;;;;;;1999.90;999.90;;;16.20;78.40;;;;;;5038030;28;19948;-78
2024/03/31 09:29:26;;;;;;;1999.90;999.90;;;16.30;76.10;;;;;;5039196;28;20025;-78
2024/03/31 09:32:16;;;;;;;1999.90;999.90;;;16.20;78.40;;;;;;5038506;28;20029;-78
2024/03/31 09:34:46;;;;;;;1999.90;999.90;;;16.00;78.50;;;;;;5031555;28;20026;-78
2024/03/31 09:37:12;;;;;;;1999.90;999.90;;;16.00;75.20;;;;;;5037170;28;20033;-77
2024/03/31 09:39:40;;;;;;;1999.90;999.90;;;15.80;75.60;;;;;;5040550;28;20075;-79
2024/03/31 09:42:07;;;;;;;1999.90;999.90;;;15.70;77.30;;;;;;5038896;28;20255;-78
2024/03/31 09:44:35;;;;;;;1999.90;999.90;;;15.80;74.90;;;;;;5037201;28;20033;-76
2024/03/31 09:47:01;;;;;;;1999.90;999.90;;;16.00;75.00;;;;;;5032664;28;20087;-78
2024/03/31 09:49:28;;;;;;;1999.90;999.90;;;15.70;76.00;;;;;;5036937;28;20037;-77
2024/03/31 09:51:58;;;;;;;1999.90;999.90;;;15.60;76.70;;;;;;5029272;28;20439;-77
2024/03/31 09:54:32;;;;;;;1999.90;999.90;;;15.50;75.00;;;;;;5033936;28;20113;-75
2024/03/31 09:57:08;;;;;;;1999.90;999.90;;;15.70;75.00;;;;;;5035982;28;20146;-76
2024/03/31 10:00:01;;;;;;;1999.90;999.90;;;16.00;74.90;;;;;;5035158;28;20029;-75
2024/03/31 10:02:27;;;;;;;1999.90;999.90;;;15.90;74.60;;;;;;5034253;28;20280;-79
2024/03/31 10:04:56;;;;;;;1999.90;999.90;;;15.90;75.10;;;;;;5027033;28;20484;-78
2024/03/31 10:07:21;;;;;;;1999.90;999.90;;;15.60;73.30;;;;;;5024485;28;20492;-78
2024/03/31 10:09:48;;;;;;;1999.90;999.90;;;15.70;72.30;;;;;;5018568;28;20552;-78
2024/03/31 10:12:16;;;;;;;1999.90;999.90;;;15.80;72.20;;;;;;5020098;28;20030;-79
2024/03/31 10:14:45;;;;;;;1999.90;999.90;;;16.00;71.60;;;;;;5019879;28;20030;-76
2024/03/31 10:17:12;;;;;;;1999.90;999.90;;;16.20;72.00;;;;;;5022562;28;20723;-78
2024/03/31 10:19:40;;;;;;;1999.90;999.90;;;16.20;70.90;;;;;;5021638;28;20039;-79
2024/03/31 10:22:08;;;;;;;1999.90;999.90;;;16.30;71.70;;;;;;5023433;28;20104;-79
2024/03/31 10:24:36;;;;;;;1999.90;999.90;;;16.20;72.70;;;;;;5022945;28;20400;-78
2024/03/31 10:27:04;;;;;;;1999.90;999.90;;;15.80;73.20;;;;;;5019407;28;20086;-79
2024/03/31 10:29:31;;;;;;;1999.90;999.90;;;15.80;72.90;;;;;;5028777;28;20136;-78
2024/03/31 10:31:58;;;;;;;1999.90;999.90;;;15.70;73.50;;;;;;5023580;28;20500;-78
2024/03/31 10:34:24;;;;;;;1999.90;999.90;;;15.70;74.90;;;;;;5022633;28;20841;-78
2024/03/31 10:36:51;;;;;;;1999.90;999.90;;;15.90;73.00;;;;;;5022206;28;20033;-78
2024/03/31 10:39:21;;;;;;;1999.90;999.90;;;15.70;76.10;;;;;;5023158;28;20029;-78
2024/03/31 10:41:48;;;;;;;1999.90;999.90;;;15.40;76.10;;;;;;5020115;28;20040;-78
2024/03/31 10:44:15;;;;;;;1999.90;999.90;;;15.00;77.60;;;;;;5022249;28;20029;-77
2024/03/31 10:46:42;;;;;;;1999.90;999.90;;;14.90;76.20;;;;;;5021943;28;20079;-78
2024/03/31 10:49:09;;;;;;;1999.90;999.90;;;14.80;77.30;;;;;;5021559;28;20018;-78
2024/03/31 10:51:40;;;;;;;1999.90;999.90;;;14.90;77.60;;;;;;5020921;28;20083;-78
2024/03/31 10:54:28;;;;;;;1999.90;999.90;;;15.20;77.40;;;;;;5023031;28;20083;-78
2024/03/31 10:56:59;;;;;;;1999.90;999.90;;;15.40;76.00;;;;;;5018207;28;20049;-79
2024/03/31 10:59:28;;;;;;;1999.90;999.90;;;15.50;76.50;;;;;;5020535;28;20037;-77
2024/03/31 11:01:56;;;;;;;1999.90;999.90;;;15.80;76.90;;;;;;5025325;28;20882;-78
2024/03/31 11:04:24;;;;;;;1999.90;999.90;;;15.80;76.40;;;;;;5022842;28;20132;-78
2024/03/31 11:06:52;;;;;;;1999.90;999.90;;;15.70;74.70;;;;;;5022402;28;20029;-77
2024/03/31 11:09:19;;;;;;;1999.90;999.90;;;15.50;74.40;;;;;;5014966;28;20026;-77
2024/03/31 11:11:46;;;;;;;1999.90;999.90;;;15.40;74.80;;;;;;5017491;28;20025;-77
2024/03/31 11:14:12;;;;;;;1999.90;999.90;;;15.30;76.10;;;;;;5023752;28;20601;-79
2024/03/31 11:16:39;;;;;;;1999.90;999.90;;;15.40;76.10;;;;;;5018936;28;20052;-78
2024/03/31 11:19:06;;;;;;;1999.90;999.90;;;15.40;76.40;;;;;;5047313;28;20041;-78
2024/03/31 11:21:34;;;;;;;1999.90;999.90;;;15.40;75.40;;;;;;5019192;28;20437;-77
2024/03/31 11:24:01;;;;;;;1999.90;999.90;;;15.20;75.60;;;;;;5020651;28;20117;-78
2024/03/31 11:26:28;;;;;;;1999.90;999.90;;;15.10;76.00;;;;;;5021405;28;20036;-78
2024/03/31 11:28:54;;;;;;;1999.90;999.90;;;15.10;76.70;;;;;;5019782;28;20451;-78
2024/03/31 11:31:20;;;;;;;;;;;15.30;76.00;;;;;;5018863;28;20033;-79
2024/03/31 11:33:47;;;;;;;1999.90;999.90;;;15.30;74.40;;;;;;5020537;28;19956;-78
2024/03/31 11:36:15;;;;;;;1999.90;999.90;;;15.00;72.60;;;;;;5021137;28;20198;-78
2024/03/31 11:38:41;;;;;;;1999.90;999.90;;;14.80;74.60;;;;;;5021437;28;20045;-79
2024/03/31 11:41:07;;;;;;;1999.90;999.90;;;14.80;75.70;;;;;;5021434;28;20036;-80
2024/03/31 11:43:32;;;;;;;1999.90;999.90;;;14.80;75.60;;;;;;5016233;28;20033;-78
2024/03/31 11:45:58;;;;;;;1999.90;999.90;;;14.80;75.70;;;;;;5018263;28;20022;-78
2024/03/31 11:48:27;;;;;;;1999.90;999.90;;;15.00;76.50;;;;;;5011585;28;20582;-78
2024/03/31 11:50:52;;;;;;;1999.90;999.90;;;15.00;75.20;;;;;;5009946;28;20021;-79
2024/03/31 11:53:19;;;;;;;1999.90;999.90;;;15.10;76.00;;;;;;5011652;28;20034;-78
2024/03/31 11:55:44;;;;;;;1999.90;999.90;;;15.00;77.10;;;;;;5012074;28;20612;-77
2024/03/31 11:58:10;;;;;;;1999.90;999.90;;;15.10;77.00;;;;;;5013094;28;20049;-82
2024/03/31 12:00:36;;;;;;;1999.90;999.90;;;15.50;77.50;;;;;;5013144;28;20032;-79
2024/03/31 12:03:06;;;;;;;1999.90;999.90;;;15.90;76.60;;;;;;5011398;28;20030;-81
2024/03/31 12:05:34;;;;;;;1999.90;999.90;;;16.10;74.10;;;;;;5016034;28;20334;-79
2024/03/31 12:08:00;;;;;;;1999.90;999.90;;;16.00;74.20;;;;;;5021002;28;20084;-79
2024/03/31 12:10:26;;;;;;;1999.90;999.90;;;15.70;70.70;;;;;;5018391;28;20037;-79
2024/03/31 12:12:52;;;;;;;1999.90;999.90;;;15.60;73.00;;;;;;5021106;28;20030;-79
2024/03/31 12:15:20;;;;;;;1999.90;999.90;;;15.50;73.10;;;;;;5021901;28;20017;-78
2024/03/31 12:17:46;;;;;;;1999.90;999.90;;;15.40;74.80;;;;;;5025001;28;20447;-78
2024/03/31 12:20:12;;;;;;;1999.90;999.90;;;15.30;76.80;;;;;;5021321;28;20504;-78
2024/03/31 12:22:41;;;;;;;1999.90;999.90;;;15.30;77.50;;;;;;5022356;28;20056;-79
2024/03/31 12:25:10;;;;;;;1999.90;999.90;;;15.30;76.70;;;;;;5017269;28;20109;-79
2024/03/31 12:27:36;;;;;;;1999.90;999.90;;;15.50;78.00;;;;;;5014242;28;20044;-78
2024/03/31 12:30:06;;;;;;;1999.90;999.90;;;15.90;76.60;;;;;;5016971;28;20032;-82
2024/03/31 12:32:32;;;;;;;1999.90;999.90;;;16.20;75.80;;;;;;5013129;28;20029;-78
2024/03/31 12:34:57;;;;;;;1999.90;999.90;;;16.50;76.00;;;;;;5016999;28;20461;-79
2024/03/31 12:37:24;;;;;;;1999.90;999.90;;;16.80;75.00;;;;;;5017945;28;20231;-80
2024/03/31 12:39:54;;;;;;;1999.90;999.90;;;17.20;74.70;;;;;;5021279;28;20287;-79
2024/03/31 12:42:20;;;;;;;1999.90;999.90;;;17.20;72.90;;;;;;5023541;28;20029;-78
2024/03/31 12:44:45;;;;;;;1999.90;999.90;;;17.30;73.90;;;;;;5020563;28;20107;-78
2024/03/31 12:47:11;;;;;;;1999.90;999.90;;;16.80;71.40;;;;;;5022037;28;20498;-79
2024/03/31 12:49:37;;;;;;;1999.90;999.90;;;16.50;74.60;;;;;;5019489;28;20041;-78
2024/03/31 12:52:06;;;;;;;1999.90;999.90;;;16.20;78.80;;;;;;5018075;28;20562;-78
2024/03/31 12:54:35;;;;;;;1999.90;999.90;;;16.00;77.90;;;;;;5011196;28;20824;-79
2024/03/31 12:57:01;;;;;;;1999.90;999.90;;;16.00;78.60;;;;;;5019236;28;20079;-79
2024/03/31 12:59:27;;;;;;;1999.90;999.90;;;16.20;73.50;;;;;;5019682;28;20435;-80
2024/03/31 13:01:59;;;;;;;1999.90;999.90;;;16.20;71.40;;;;;;5021012;28;20051;-79
2024/03/31 13:04:25;;;;;;;1999.90;999.90;;;16.50;72.00;;;;;;5010637;28;20706;-79
2024/03/31 13:06:51;;;;;;;1999.90;999.90;;;16.50;76.00;;;;;;5017796;28;20022;-79
2024/03/31 13:09:19;;;;;;;1999.90;999.90;;;16.20;75.80;;;;;;5015522;28;20048;-79
2024/03/31 13:11:45;;;;;;;1999.90;999.90;;;16.20;76.50;;;;;;5020891;28;20029;-79
2024/03/31 13:14:15;;;;;;;1999.90;999.90;;;16.20;74.30;;;;;;5015829;28;20035;-79
2024/03/31 13:16:42;;;;;;;1999.90;999.90;;;16.20;72.80;;;;;;5019806;28;20038;-79
2024/03/31 13:19:08;;;;;;;1999.90;999.90;;;16.30;75.00;;;;;;5022317;28;20028;-79
2024/03/31 13:21:35;;;;;;;1999.90;999.90;;;16.30;71.00;;;;;;5020413;28;20033;-79
2024/03/31 13:24:01;;;;;;;;;;;16.70;72.80;;;;;;5021365;28;20207;-79